^^
Saratoga-Weather Station Historical Data
Daily Summary for October 2, 2020 Units:  English    Metric   Both
Daily Weekly Monthly Yearly Custom
  High: Low: Average:
Temperature: 56.8 °F 45.3 °F 51.8 °F
Dew Point: 55.8 °F 44.2 °F 50.7 °F
Humidity: 98% 95% 97%
Wind Speed: 6.9mph 0mph 0.4mph
Wind Gust: 10mph - -
Wind- - SSW
Pressure: 29.5 in 29.1 in -
Precipitation: 0.39 in    
Historical Graphs
 
 
Tabular Data for October 2, 2020
Time Temperature Dew Point Pressure Wind Wind Speed Wind Gust Humidity Rainfall Rate (Hourly) solar
00:02 47.8 °F 46.8 °F 29.5 in Calm     96% 0 in 0 W/m2
00:07 47.8 °F 46.8 °F 29.5 in Calm     96% 0 in 0 W/m2
00:12 47.8 °F 46.8 °F 29.5 in Calm     96% 0 in 0 W/m2
00:17 47.7 °F 46.2 °F 29.5 in Calm     95% 0 in 0 W/m2
00:22 47.7 °F 46.2 °F 29.5 in Calm     95% 0 in 0 W/m2
00:27 47.5 °F 46.4 °F 29.5 in Calm   1 mph 96% 0 in 0 W/m2
00:32 47.5 °F 46.4 °F 29.5 in Calm     96% 0 in 0 W/m2
00:37 47.1 °F 46 °F 29.5 in Calm   2 mph 96% 0 in 0 W/m2
00:42 47.1 °F 46 °F 29.5 in Calm     96% 0 in 0 W/m2
00:47 46.9 °F 45.9 °F 29.5 in Calm     96% 0 in 0 W/m2
00:52 46.8 °F 45.7 °F 29.5 in Calm     96% 0 in 0 W/m2
00:57 46.8 °F 45.7 °F 29.5 in Calm     96% 0 in 0 W/m2
01:02 46.8 °F 45.7 °F 29.5 in Calm     96% 0 in 0 W/m2
01:07 46.6 °F 45.5 °F 29.5 in Calm     96% 0 in 0 W/m2
01:12 46.4 °F 45.3 °F 29.5 in Calm     96% 0 in 0 W/m2
01:17 46.2 °F 45.1 °F 29.5 in Calm     96% 0 in 0 W/m2
01:22 46 °F 45 °F 29.5 in Calm     96% 0 in 0 W/m2
01:27 46 °F 45 °F 29.5 in Calm     96% 0 in 0 W/m2
01:32 46 °F 45 °F 29.5 in Calm     96% 0 in 0 W/m2
01:37 46 °F 45 °F 29.5 in Calm     96% 0 in 0 W/m2
01:42 46 °F 45 °F 29.5 in Calm     96% 0 in 0 W/m2
01:47 46 °F 45 °F 29.5 in Calm     96% 0 in 0 W/m2
01:52 46 °F 45 °F 29.5 in Calm     96% 0 in 0 W/m2
01:57 45.9 °F 44.8 °F 29.5 in Calm     96% 0 in 0 W/m2
02:02 45.9 °F 44.8 °F 29.5 in Calm     96% 0 in 0 W/m2
02:07 45.9 °F 44.8 °F 29.5 in Calm     96% 0 in 0 W/m2
02:12 45.7 °F 44.6 °F 29.5 in Calm     96% 0 in 0 W/m2
02:17 45.7 °F 44.6 °F 29.5 in Calm     96% 0 in 0 W/m2
02:22 45.7 °F 44.6 °F 29.5 in Calm     96% 0 in 0 W/m2
02:27 45.5 °F 44.4 °F 29.5 in Calm     96% 0 in 0 W/m2
02:33 45.7 °F 44.6 °F 29.5 in Calm     96% 0 in 0 W/m2
02:38 45.7 °F 44.6 °F 29.5 in Calm     96% 0 in 0 W/m2
02:43 45.7 °F 44.6 °F 29.5 in Calm     96% 0 in 0 W/m2
02:48 45.5 °F 44.4 °F 29.5 in Calm     96% 0 in 0 W/m2
02:53 45.5 °F 44.4 °F 29.5 in Calm     96% 0 in 0 W/m2
02:58 45.3 °F 44.2 °F 29.5 in Calm     96% 0 in 0 W/m2
03:03 45.5 °F 44.4 °F 29.5 in Calm     96% 0 in 0 W/m2
03:08 45.7 °F 44.6 °F 29.5 in Calm     96% 0 in 0 W/m2
03:13 45.7 °F 44.6 °F 29.5 in Calm     96% 0 in 0 W/m2
03:18 45.9 °F 44.8 °F 29.5 in Calm     96% 0 in 0 W/m2
03:23 45.9 °F 45.1 °F 29.5 in South 0.9 mph 2 mph 97% 0 in 0 W/m2
03:28 46 °F 45.3 °F 29.5 in SE 2 mph 3 mph 97% 0 in 0 W/m2
03:33 46.2 °F 45.5 °F 29.4 in Calm   2 mph 97% 0 in 0 W/m2
03:38 46.2 °F 45.5 °F 29.4 in Calm   3 mph 97% 0 in 0 W/m2
03:43 46.2 °F 45.5 °F 29.4 in Calm   2 mph 97% 0 in 0 W/m2
03:48 46.2 °F 45.5 °F 29.4 in Calm     97% 0 in 0 W/m2
03:53 46.2 °F 45.5 °F 29.4 in Calm   2 mph 97% 0 in 0 W/m2
03:58 46.2 °F 45.5 °F 29.4 in SE 0.9 mph 1 mph 97% 0 in 0 W/m2
04:03 46.2 °F 45.5 °F 29.4 in Calm     97% 0 in 0 W/m2
04:08 46.2 °F 45.5 °F 29.4 in Calm     97% 0 in 0 W/m2
04:13 46.2 °F 45.5 °F 29.4 in Calm   1 mph 97% 0 in 0 W/m2
04:18 46.4 °F 45.7 °F 29.4 in Calm     97% 0 in 0 W/m2
04:23 46.4 °F 45.7 °F 29.4 in Calm   1 mph 97% 0 in 0 W/m2
04:28 46.4 °F 45.7 °F 29.4 in Calm     97% 0 in 0 W/m2
04:33 46.4 °F 45.7 °F 29.4 in Calm     97% 0 in 0 W/m2
04:38 46.6 °F 45.9 °F 29.4 in Calm     97% 0 in 0 W/m2
04:43 46.6 °F 45.9 °F 29.4 in Calm     97% 0 in 0 W/m2
04:48 46.6 °F 45.9 °F 29.4 in Calm     97% 0 in 0 W/m2
04:53 46.4 °F 45.7 °F 29.4 in Calm     97% 0 in 0 W/m2
04:58 46.2 °F 45.5 °F 29.4 in Calm     97% 0 in 0 W/m2
05:03 46.2 °F 45.5 °F 29.4 in Calm     97% 0 in 0 W/m2
05:08 46 °F 45.3 °F 29.4 in Calm     97% 0 in 0 W/m2
05:14 46.2 °F 45.5 °F 29.4 in Calm     97% 0 in 0 W/m2
05:19 46.2 °F 45.5 °F 29.4 in Calm     97% 0 in 0 W/m2
05:24 46.4 °F 45.7 °F 29.4 in Calm     97% 0 in 0 W/m2
05:29 46.6 °F 45.9 °F 29.4 in Calm     97% 0 in 0 W/m2
05:34 46.6 °F 45.9 °F 29.4 in Calm     97% 0 in 0 W/m2
05:39 46.8 °F 46 °F 29.4 in Calm   2 mph 97% 0 in 0 W/m2
05:44 46.9 °F 46.2 °F 29.4 in Calm   1 mph 97% 0 in 0 W/m2
05:49 46.9 °F 46.2 °F 29.4 in Calm     97% 0 in 0 W/m2
05:54 46.9 °F 46.2 °F 29.4 in Calm     97% 0 in 0 W/m2
06:00 47.1 °F 46.4 °F 29.4 in Calm     97% 0 in 0 W/m2
06:05 47.1 °F 46.4 °F 29.4 in Calm     97% 0 in 0 W/m2
06:10 46.9 °F 46.2 °F 29.4 in Calm     97% 0 in 0 W/m2
06:15 46.9 °F 46.2 °F 29.4 in Calm     97% 0 in 0 W/m2
06:20 46.9 °F 46.2 °F 29.4 in Calm     97% 0 in 0 W/m2
06:25 46.9 °F 46.2 °F 29.4 in Calm     97% 0 in 0 W/m2
06:31 46.9 °F 46.2 °F 29.3 in Calm   1 mph 97% 0 in 0 W/m2
06:36 47.1 °F 46.4 °F 29.3 in Calm   1 mph 97% 0 in 0 W/m2
06:41 47.1 °F 46.4 °F 29.3 in Calm   1 mph 97% 0 in 0 W/m2
06:46 47.3 °F 46.6 °F 29.3 in Calm     97% 0 in 0 W/m2
06:51 47.5 °F 46.8 °F 29.3 in SE 0.9 mph 1 mph 97% 0 in 0 W/m2
06:56 47.5 °F 46.8 °F 29.3 in SE 0.9 mph 2 mph 97% 0 in 0 W/m2
07:01 47.7 °F 46.9 °F 29.3 in Calm   1 mph 97% 0 in 0 W/m2
07:06 47.7 °F 46.9 °F 29.3 in Calm   2 mph 97% 0 in 0 W/m2
07:11 47.8 °F 46.9 °F 29.3 in Calm     97% 0 in 0 W/m2
07:16 47.8 °F 46.9 °F 29.3 in Calm   2 mph 97% 0 in 0 W/m2
07:21 47.8 °F 46.9 °F 29.3 in Calm     97% 0 in 0 W/m2
07:26 47.8 °F 46.9 °F 29.3 in Calm     97% 0 in 0 W/m2
07:31 47.8 °F 46.9 °F 29.3 in Calm     97% 0 in 0 W/m2
07:36 47.8 °F 46.9 °F 29.3 in Calm   1 mph 97% 0 in 0 W/m2
07:41 48 °F 47.1 °F 29.3 in Calm     97% 0 in 0 W/m2
07:46 48 °F 47.1 °F 29.3 in Calm     97% 0 in 0 W/m2
07:51 48 °F 47.1 °F 29.3 in Calm     97% 0 in 0 W/m2
07:56 48.2 °F 47.3 °F 29.3 in Calm     97% 0 in 0 W/m2
08:01 48.2 °F 47.3 °F 29.3 in Calm     97% 0 in 0 W/m2
08:06 48.4 °F 47.5 °F 29.3 in Calm     97% 0 in 0 W/m2
08:11 48.4 °F 47.5 °F 29.3 in Calm     97% 0 in 0 W/m2
08:16 48.6 °F 47.7 °F 29.3 in Calm   2 mph 97% 0 in 0 W/m2
08:21 48.7 °F 47.8 °F 29.3 in Calm   1 mph 97% 0.01 in 5 W/m2
08:26 48.7 °F 47.8 °F 29.3 in Calm     97% 0.01 in 7 W/m2
08:31 48.9 °F 48 °F 29.3 in Calm   1 mph 97% 0.01 in 7 W/m2
08:36 48.9 °F 48 °F 29.3 in Calm   1 mph 97% 0.01 in 7 W/m2
08:41 49.1 °F 48.2 °F 29.3 in Calm     97% 0.01 in 5 W/m2
08:46 49.3 °F 48.7 °F 29.3 in NE 4 mph 4 mph 98% 0.01 in 5 W/m2
08:51 49.5 °F 48.6 °F 29.3 in Calm   1 mph 97% 0.01 in 0 W/m2
08:56 49.6 °F 48.7 °F 29.3 in NE 4 mph 4 mph 97% 0.01 in 0 W/m2
09:01 49.8 °F 49.3 °F 29.3 in Calm   1 mph 98% 0.02 in 9 W/m2
09:06 49.8 °F 49.3 °F 29.3 in ENE 0.9 mph 1 mph 98% 0.02 in 12 W/m2
09:11 50 °F 49.5 °F 29.3 in Calm   1 mph 98% 0.03 in 12 W/m2
09:16 50.2 °F 49.3 °F 29.3 in Calm     97% 0.03 in 14 W/m2
09:21 50.2 °F 49.3 °F 29.3 in Calm     97% 0.02 in 25 W/m2
09:26 50.4 °F 49.5 °F 29.3 in East 2 mph 2 mph 97% 0.02 in 19 W/m2
09:31 50.5 °F 50 °F 29.3 in East 0.9 mph 2 mph 98% 0.03 in 21 W/m2
09:37 50.5 °F 49.6 °F 29.3 in SE 0.9 mph 2 mph 97% 0.03 in 28 W/m2
09:42 50.7 °F 49.8 °F 29.3 in East 0.9 mph 3 mph 97% 0.04 in 26 W/m2
09:47 50.7 °F 49.8 °F 29.3 in East 0.9 mph 1 mph 97% 0.04 in 40 W/m2
09:52 50.9 °F 50.4 °F 29.3 in NNE 0.9 mph 1 mph 98% 0.05 in 32 W/m2
09:57 51.1 °F 50.5 °F 29.3 in NE 2 mph 2 mph 98% 0.05 in 35 W/m2
10:02 51.1 °F 50.5 °F 29.3 in East 0.9 mph 2 mph 98% 0.04 in 51 W/m2
10:07 51.3 °F 50.4 °F 29.3 in Calm   1 mph 97% 0.03 in 63 W/m2
10:12 51.3 °F 50.4 °F 29.3 in Calm   2 mph 97% 0.03 in 62 W/m2
10:17 51.4 °F 50.5 °F 29.3 in Calm   2 mph 97% 0.03 in 65 W/m2
10:22 51.6 °F 51.1 °F 29.3 in Calm   1 mph 98% 0.03 in 58 W/m2
10:27 51.6 °F 51.1 °F 29.3 in East 0.9 mph 2 mph 98% 0.04 in 53 W/m2
10:32 51.8 °F 51.3 °F 29.3 in East 0.9 mph 2 mph 98% 0.03 in 54 W/m2
10:37 52 °F 51.1 °F 29.3 in Calm   1 mph 97% 0.04 in 47 W/m2
10:42 52 °F 51.1 °F 29.3 in East 2 mph 2 mph 97% 0.03 in 69 W/m2
10:47 52 °F 51.1 °F 29.3 in Calm   4 mph 97% 0.04 in 42 W/m2
10:52 52 °F 51.1 °F 29.3 in ENE 0.9 mph 2 mph 97% 0.03 in 39 W/m2
10:57 52.2 °F 51.3 °F 29.3 in East 0.9 mph 3 mph 97% 0.04 in 53 W/m2
11:02 52.2 °F 51.6 °F 29.3 in Calm   2 mph 98% 0.04 in 53 W/m2
11:07 52.2 °F 51.6 °F 29.3 in Calm   2 mph 98% 0.05 in 40 W/m2
11:12 52.2 °F 51.3 °F 29.3 in Calm   2 mph 97% 0.05 in 56 W/m2
11:17 52.2 °F 51.3 °F 29.3 in Calm     97% 0.05 in 42 W/m2
11:22 52.2 °F 51.3 °F 29.3 in Calm   1 mph 97% 0.06 in 60 W/m2
11:27 52.3 °F 51.4 °F 29.3 in Calm     97% 0.06 in 54 W/m2
11:32 52.3 °F 51.4 °F 29.3 in East 0.9 mph 1 mph 97% 0.07 in 42 W/m2
11:37 52.3 °F 51.4 °F 29.3 in Calm     97% 0.06 in 46 W/m2
11:42 52.5 °F 51.6 °F 29.3 in East 0.9 mph 2 mph 97% 0.07 in 67 W/m2
11:47 52.5 °F 51.6 °F 29.3 in Calm     97% 0.08 in 40 W/m2
11:52 52.5 °F 51.6 °F 29.3 in Calm   1 mph 97% 0.09 in 44 W/m2
11:57 52.7 °F 51.8 °F 29.3 in Calm   1 mph 97% 0.09 in 63 W/m2
12:02 52.7 °F 51.8 °F 29.3 in Calm     97% 0.1 in 70 W/m2
12:07 52.9 °F 52 °F 29.3 in Calm   2 mph 97% 0.1 in 65 W/m2
12:12 52.9 °F 52 °F 29.3 in East 0.9 mph 3 mph 97% 0.1 in 62 W/m2
12:17 52.9 °F 52 °F 29.3 in Calm   2 mph 97% 0.1 in 53 W/m2
12:22 52.9 °F 52 °F 29.3 in East 0.9 mph 3 mph 97% 0.11 in 67 W/m2
12:27 52.9 °F 52 °F 29.3 in Calm     97% 0.11 in 79 W/m2
12:32 52.9 °F 52 °F 29.3 in Calm   2 mph 97% 0.11 in 70 W/m2
12:37 52.9 °F 52 °F 29.3 in Calm   1 mph 97% 0.13 in 51 W/m2
12:42 52.9 °F 52 °F 29.3 in ESE 0.9 mph 2 mph 97% 0.13 in 53 W/m2
12:47 53.1 °F 52.2 °F 29.3 in Calm   1 mph 97% 0.13 in 58 W/m2
12:52 53.1 °F 52.2 °F 29.3 in Calm   3 mph 97% 0.12 in 53 W/m2
12:57 53.1 °F 52.2 °F 29.3 in ESE 0.9 mph 2 mph 97% 0.13 in 44 W/m2
13:02 53.2 °F 52.3 °F 29.3 in East 0.9 mph 3 mph 97% 0.12 in 72 W/m2
13:07 53.2 °F 52.3 °F 29.3 in Calm   1 mph 97% 0.12 in 104 W/m2
13:12 53.4 °F 52.5 °F 29.3 in Calm   2 mph 97% 0.11 in 125 W/m2
13:17 53.4 °F 52.5 °F 29.2 in Calm     97% 0.1 in 109 W/m2
13:22 53.6 °F 52.7 °F 29.2 in ENE 0.9 mph 2 mph 97% 0.09 in 97 W/m2
13:27 53.8 °F 52.9 °F 29.2 in Calm   1 mph 97% 0.08 in 104 W/m2
13:32 53.8 °F 52.9 °F 29.2 in Calm     97% 0.07 in 109 W/m2
13:37 54 °F 53.1 °F 29.2 in Calm     97% 0.06 in 142 W/m2
13:42 54 °F 53.1 °F 29.2 in Calm     97% 0.05 in 165 W/m2
13:47 54.1 °F 53.2 °F 29.2 in Calm   1 mph 97% 0.03 in 158 W/m2
13:52 54.1 °F 53.2 °F 29.2 in Calm   1 mph 97% 0.02 in 174 W/m2
13:57 54.1 °F 53.2 °F 29.2 in NNW 0.9 mph 1 mph 97% 0.01 in 162 W/m2
14:02 54.3 °F 53.4 °F 29.2 in Calm   1 mph 97% 0.01 in 149 W/m2
14:07 54.7 °F 53.8 °F 29.2 in Calm   2 mph 97% 0.01 in 114 W/m2
14:12 54.7 °F 53.8 °F 29.2 in NNW 0.9 mph 2 mph 97% 0.01 in 114 W/m2
14:17 54.9 °F 53.8 °F 29.2 in Calm   1 mph 96% 0.01 in 98 W/m2
14:22 54.9 °F 53.8 °F 29.2 in Calm   3 mph 96% 0.01 in 88 W/m2
14:27 55 °F 54 °F 29.2 in Calm   1 mph 96% 0.01 in 81 W/m2
14:32 55 °F 54 °F 29.2 in Calm   2 mph 96% 0.01 in 76 W/m2
14:37 55 °F 53.6 °F 29.2 in Calm   1 mph 95% 0.01 in 69 W/m2
14:43 55 °F 53.6 °F 29.2 in Calm     95% 0.01 in 58 W/m2
14:48 55.2 °F 53.8 °F 29.2 in Calm   1 mph 95% 0.01 in 60 W/m2
14:53 55.2 °F 53.8 °F 29.2 in Calm   1 mph 95% 0.01 in 53 W/m2
14:58 55.2 °F 53.8 °F 29.2 in SE 0.9 mph 2 mph 95% 0.01 in 53 W/m2
15:03 55.2 °F 53.8 °F 29.2 in NW 0.9 mph 2 mph 95% 0 in 54 W/m2
15:08 55.2 °F 53.8 °F 29.2 in SW 0.9 mph 1 mph 95% 0 in 58 W/m2
15:13 55.4 °F 54 °F 29.2 in Calm   1 mph 95% 0 in 62 W/m2
15:18 55.6 °F 54.1 °F 29.2 in Calm   2 mph 95% 0 in 62 W/m2
15:23 55.6 °F 54.1 °F 29.2 in WNW 0.9 mph 2 mph 95% 0 in 58 W/m2
15:28 55.8 °F 54.3 °F 29.2 in WSW 2 mph 2 mph 95% 0 in 54 W/m2
15:33 55.8 °F 54.3 °F 29.2 in Calm     95% 0 in 54 W/m2
15:38 55.8 °F 54.3 °F 29.2 in West 0.9 mph 2 mph 95% 0 in 58 W/m2
15:43 55.9 °F 54.9 °F 29.2 in Calm     96% 0.01 in 69 W/m2
15:48 55.9 °F 54.9 °F 29.2 in Calm   2 mph 96% 0.01 in 54 W/m2
15:53 55.9 °F 54.9 °F 29.2 in West 0.9 mph 1 mph 96% 0.01 in 49 W/m2
15:58 56.1 °F 55 °F 29.2 in Calm     96% 0.01 in 42 W/m2
16:03 56.1 °F 55 °F 29.2 in Calm     96% 0.02 in 42 W/m2
16:08 56.1 °F 55 °F 29.2 in Calm     96% 0.02 in 53 W/m2
16:13 56.1 °F 55 °F 29.2 in West 0.9 mph 2 mph 96% 0.02 in 53 W/m2
16:18 56.1 °F 55 °F 29.2 in Calm   2 mph 96% 0.02 in 44 W/m2
16:23 56.1 °F 55 °F 29.2 in Calm     96% 0.02 in 51 W/m2
16:28 56.3 °F 55.2 °F 29.2 in Calm     96% 0.02 in 72 W/m2
16:33 56.5 °F 55.4 °F 29.2 in West 0.9 mph 2 mph 96% 0.02 in 56 W/m2
16:45 56.5 °F 55.4 °F 29.2 in Calm     96% 0.02 in 51 W/m2
16:50 56.5 °F 55.4 °F 29.2 in West 0.9 mph 2 mph 96% 0.02 in 56 W/m2
16:55 56.7 °F 55.6 °F 29.2 in Calm   1 mph 96% 0.02 in 53 W/m2
17:00 56.7 °F 55.6 °F 29.2 in Calm   2 mph 96% 0.01 in 51 W/m2
17:05 56.8 °F 55.8 °F 29.2 in Calm     96% 0.01 in 44 W/m2
17:10 56.8 °F 55.8 °F 29.2 in Calm   2 mph 96% 0.01 in 39 W/m2
17:15 56.8 °F 55.8 °F 29.2 in Calm     96% 0.01 in 37 W/m2
17:20 56.8 °F 55.8 °F 29.2 in Calm     96% 0.01 in 37 W/m2
17:25 56.8 °F 55.8 °F 29.2 in Calm     96% 0.01 in 39 W/m2
17:30 56.8 °F 55.8 °F 29.2 in Calm     96% 0 in 33 W/m2
17:35 56.8 °F 55.8 °F 29.2 in West 0.9 mph 2 mph 96% 0 in 28 W/m2
17:40 56.8 °F 55.8 °F 29.2 in Calm     96% 0 in 28 W/m2
17:45 56.8 °F 55.8 °F 29.2 in Calm   2 mph 96% 0 in 26 W/m2
17:50 56.8 °F 55.8 °F 29.2 in Calm   1 mph 96% 0 in 23 W/m2
17:55 56.8 °F 55.8 °F 29.2 in South 0.9 mph 2 mph 96% 0 in 19 W/m2
18:00 56.7 °F 55.6 °F 29.2 in South 0.9 mph 2 mph 96% 0 in 18 W/m2
18:06 56.7 °F 55.6 °F 29.2 in Calm   1 mph 96% 0.01 in 16 W/m2
18:11 56.7 °F 55.6 °F 29.2 in Calm   2 mph 96% 0.01 in 14 W/m2
18:16 56.7 °F 55.6 °F 29.2 in Calm     96% 0.01 in 12 W/m2
18:21 56.5 °F 55.4 °F 29.2 in Calm     96% 0.01 in 11 W/m2
18:26 56.5 °F 55.4 °F 29.1 in Calm     96% 0.01 in 9 W/m2
18:31 56.5 °F 55.4 °F 29.1 in Calm     96% 0.02 in 7 W/m2
18:36 56.5 °F 55.6 °F 29.1 in Calm     97% 0.02 in 7 W/m2
18:41 56.5 °F 55.6 °F 29.1 in Calm   1 mph 97% 0.02 in 5 W/m2
18:46 56.3 °F 55.4 °F 29.1 in Calm     97% 0.02 in 0 W/m2
18:51 56.3 °F 55.4 °F 29.1 in Calm     97% 0.02 in 0 W/m2
18:56 56.3 °F 55.4 °F 29.1 in SW 0.9 mph 1 mph 97% 0.02 in 0 W/m2
19:01 56.3 °F 55.4 °F 29.2 in Calm   1 mph 97% 0.02 in 0 W/m2
19:06 56.1 °F 55.2 °F 29.2 in Calm   1 mph 97% 0.02 in 0 W/m2
19:11 56.1 °F 55.2 °F 29.2 in Calm     97% 0.02 in 0 W/m2
19:16 56.1 °F 55.2 °F 29.2 in Calm   1 mph 97% 0.02 in 0 W/m2
19:21 56.1 °F 55.2 °F 29.2 in Calm     97% 0.02 in 0 W/m2
19:26 56.1 °F 55.2 °F 29.2 in Calm     97% 0.02 in 0 W/m2
19:31 56.1 °F 55.2 °F 29.1 in Calm     97% 0.02 in 0 W/m2
19:36 55.9 °F 55 °F 29.1 in Calm   1 mph 97% 0.02 in 0 W/m2
19:41 55.9 °F 55 °F 29.1 in Calm     97% 0.02 in 0 W/m2
19:46 55.9 °F 55 °F 29.1 in Calm     97% 0.02 in 0 W/m2
19:51 55.9 °F 55 °F 29.1 in Calm   1 mph 97% 0.02 in 0 W/m2
19:56 55.9 °F 55 °F 29.1 in SW 0.9 mph 2 mph 97% 0.01 in 0 W/m2
20:01 55.9 °F 55 °F 29.1 in Calm   2 mph 97% 0.01 in 0 W/m2
20:06 55.9 °F 55 °F 29.1 in SW 0.9 mph 1 mph 97% 0.01 in 0 W/m2
20:11 55.8 °F 54.9 °F 29.1 in SW 2 mph 2 mph 97% 0.01 in 0 W/m2
20:16 55.8 °F 54.9 °F 29.1 in Calm     97% 0.01 in 0 W/m2
20:21 55.8 °F 54.9 °F 29.1 in Calm   2 mph 97% 0.01 in 0 W/m2
20:26 55.8 °F 54.9 °F 29.1 in NW 0.9 mph 1 mph 97% 0 in 0 W/m2
20:31 55.8 °F 54.9 °F 29.1 in Calm   1 mph 97% 0 in 0 W/m2
20:36 55.6 °F 54.7 °F 29.1 in West 0.9 mph 1 mph 97% 0 in 0 W/m2
20:41 55.6 °F 54.7 °F 29.1 in Calm   2 mph 97% 0 in 0 W/m2
20:46 55.6 °F 54.7 °F 29.1 in Calm   2 mph 97% 0 in 0 W/m2
20:51 55.4 °F 54.5 °F 29.1 in WSW 0.9 mph 3 mph 97% 0 in 0 W/m2
20:56 55.6 °F 54.7 °F 29.1 in WSW 0.9 mph 2 mph 97% 0 in 0 W/m2
21:01 55.4 °F 54.5 °F 29.1 in Calm   3 mph 97% 0 in 0 W/m2
21:06 55.4 °F 54.5 °F 29.1 in Calm     97% 0 in 0 W/m2
21:11 55.4 °F 54.5 °F 29.1 in WSW 0.9 mph 2 mph 97% 0 in 0 W/m2
21:16 55.4 °F 54.5 °F 29.1 in Calm   2 mph 97% 0 in 0 W/m2
21:21 55.4 °F 54.5 °F 29.1 in Calm   1 mph 97% 0 in 0 W/m2
21:26 55.2 °F 54.3 °F 29.1 in Calm   3 mph 97% 0 in 0 W/m2
21:31 55.2 °F 54.3 °F 29.1 in WSW 0.9 mph 2 mph 97% 0 in 0 W/m2
21:36 55.2 °F 54.3 °F 29.1 in Calm   2 mph 97% 0 in 0 W/m2
21:41 55.2 °F 54.3 °F 29.1 in WSW 0.9 mph 2 mph 97% 0 in 0 W/m2
21:46 55.4 °F 54.5 °F 29.1 in WSW 0.9 mph 2 mph 97% 0 in 0 W/m2
21:51 55.4 °F 54.5 °F 29.1 in Calm     97% 0 in 0 W/m2
21:56 55.4 °F 54.5 °F 29.1 in Calm   1 mph 97% 0 in 0 W/m2
22:01 55.6 °F 54.7 °F 29.1 in Calm     97% 0 in 0 W/m2
22:06 55.6 °F 54.7 °F 29.1 in WSW 0.9 mph 2 mph 97% 0 in 0 W/m2
22:11 55.6 °F 54.7 °F 29.1 in WSW 0.9 mph 2 mph 97% 0.01 in 0 W/m2
22:16 55.6 °F 54.7 °F 29.1 in WSW 0.9 mph 2 mph 97% 0.01 in 0 W/m2
22:21 55.6 °F 54.7 °F 29.1 in WSW 0.9 mph 1 mph 97% 0.01 in 0 W/m2
22:26 55.6 °F 54.7 °F 29.1 in Calm   1 mph 97% 0.01 in 0 W/m2
22:31 55.6 °F 54.7 °F 29.1 in WSW 0.9 mph 1 mph 97% 0.01 in 0 W/m2
22:36 55.4 °F 54.5 °F 29.1 in WSW 2 mph 2 mph 97% 0.01 in 0 W/m2
22:41 55.6 °F 54.7 °F 29.2 in West 2 mph 8 mph 97% 0.01 in 0 W/m2
22:46 55.8 °F 54.9 °F 29.2 in NNW 2 mph 5 mph 97% 0.01 in 0 W/m2
22:51 55.8 °F 54.9 °F 29.2 in West 0.9 mph 8 mph 97% 0.01 in 0 W/m2
22:56 55.9 °F 55 °F 29.2 in SW 0.9 mph 3 mph 97% 0.01 in 0 W/m2
23:01 55.9 °F 55 °F 29.2 in NW 0.9 mph 3 mph 97% 0.01 in 0 W/m2
23:06 56.1 °F 55.2 °F 29.2 in WNW 4 mph 6 mph 97% 0.01 in 0 W/m2
23:11 56.1 °F 55.2 °F 29.1 in WNW 2.9 mph 7 mph 97% 0 in 0 W/m2
23:16 56.1 °F 55.2 °F 29.1 in West 2.9 mph 10 mph 97% 0 in 0 W/m2
23:21 56.1 °F 55.2 °F 29.1 in WSW 4 mph 8 mph 97% 0 in 0 W/m2
23:26 56.1 °F 55.2 °F 29.2 in NW 2 mph 10 mph 97% 0 in 0 W/m2
23:32 56.1 °F 55 °F 29.2 in West 6.9 mph 8 mph 96% 0 in 0 W/m2
23:37 56.1 °F 55 °F 29.2 in SW 0.9 mph 6 mph 96% 0 in 0 W/m2
23:42 56.1 °F 55 °F 29.2 in WSW 0.9 mph 8 mph 96% 0 in 0 W/m2
23:47 56.1 °F 55 °F 29.2 in WNW 4 mph 7 mph 96% 0 in 0 W/m2
23:52 56.3 °F 55.2 °F 29.2 in WNW 4.9 mph 7 mph 96% 0 in 0 W/m2
23:57 56.3 °F 54.9 °F 29.2 in West 4 mph 4 mph 95% 0 in 0 W/m2
Juneau County Weather
Compliments of Weather Underground - 4 mb